aviador You're here:

SAEZ Decoded Metar

BUENOS AIRES/EZE in ARGENTINA
Report Time2018-01-21 07:00:00
UTC Time2018-01-21 08:33:44
Flight Rules Old
Wind130° at 04 kt
W.Decomp.*RWY 11: 3.6 kt HW 1.8 kt RCW
RWY 17: 3.4 kt HW 2.2 kt LCW
W.Rank130° ranks 28
Current wind is below 130° avg. (6.7)
Visibility7000 m
Phenomena:N/A
Clouds:N/A
CeilingNone
Temp21°C (ISA +6)
Dew Point21°C (100% RH)
QNH1009 hPa
Density Alt1,243 ft
Elevation66 ft
Report Wrong Elevation
Raw Report
METAR SAEZ 210700Z 13004KT 7000 NSC 21/21 Q1009=

Extra information for SAEZ:More info

Metar Taf Metar & Taf Last 4 Metars F.Rules Stats Wind Profile Meteogram Temp Stats Airport Information Weather charts Add Link Nearby VenuesMetar ALERT Operation Metar Decoded Social comments